sensor_id;sensor_type;location;lat;lon;timestamp;P1;durP1;ratioP1;P2;durP2;ratioP2
17504;SDS011;8870;50.950;11.762;2022-12-18T00:03:52;16.48;;;10.85;;
17504;SDS011;8870;50.950;11.762;2022-12-18T00:09:24;15.23;;;10.82;;
17504;SDS011;8870;50.950;11.762;2022-12-18T00:14:49;16.13;;;11.07;;
17504;SDS011;8870;50.950;11.762;2022-12-18T00:20:21;16.08;;;10.90;;
17504;SDS011;8870;50.950;11.762;2022-12-18T00:25:40;15.82;;;10.25;;
17504;SDS011;8870;50.950;11.762;2022-12-18T00:31:14;17.40;;;9.98;;
17504;SDS011;8870;50.950;11.762;2022-12-18T00:36:35;18.07;;;10.97;;
17504;SDS011;8870;50.950;11.762;2022-12-18T00:42:07;13.00;;;9.93;;
17504;SDS011;8870;50.950;11.762;2022-12-18T00:47:42;13.35;;;8.88;;
17504;SDS011;8870;50.950;11.762;2022-12-18T00:53:13;15.02;;;9.75;;
17504;SDS011;8870;50.950;11.762;2022-12-18T00:58:32;13.87;;;10.03;;
17504;SDS011;8870;50.950;11.762;2022-12-18T01:04:06;16.05;;;10.40;;
17504;SDS011;8870;50.950;11.762;2022-12-18T01:09:24;14.63;;;9.97;;
17504;SDS011;8870;50.950;11.762;2022-12-18T01:14:56;14.20;;;9.45;;
17504;SDS011;8870;50.950;11.762;2022-12-18T01:20:17;13.57;;;9.93;;
17504;SDS011;8870;50.950;11.762;2022-12-18T01:25:48;16.33;;;10.03;;
17504;SDS011;8870;50.950;11.762;2022-12-18T01:36:41;13.60;;;9.43;;
17504;SDS011;8870;50.950;11.762;2022-12-18T01:42:14;13.63;;;9.50;;
17504;SDS011;8870;50.950;11.762;2022-12-18T01:47:35;13.70;;;9.17;;
17504;SDS011;8870;50.950;11.762;2022-12-18T01:53:12;14.02;;;9.43;;
17504;SDS011;8870;50.950;11.762;2022-12-18T01:58:35;13.23;;;9.17;;
17504;SDS011;8870;50.950;11.762;2022-12-18T02:04:19;13.37;;;8.40;;
17504;SDS011;8870;50.950;11.762;2022-12-18T02:09:42;13.07;;;8.50;;
17504;SDS011;8870;50.950;11.762;2022-12-18T02:15:18;11.83;;;8.77;;
17504;SDS011;8870;50.950;11.762;2022-12-18T02:20:44;12.23;;;8.93;;
17504;SDS011;8870;50.950;11.762;2022-12-18T02:26:23;14.50;;;9.05;;
17504;SDS011;8870;50.950;11.762;2022-12-18T02:31:47;12.27;;;8.83;;
17504;SDS011;8870;50.950;11.762;2022-12-18T02:37:22;14.03;;;9.03;;
17504;SDS011;8870;50.950;11.762;2022-12-18T02:42:46;13.77;;;9.23;;
17504;SDS011;8870;50.950;11.762;2022-12-18T02:48:17;14.10;;;9.37;;
17504;SDS011;8870;50.950;11.762;2022-12-18T02:53:42;13.00;;;8.70;;
17504;SDS011;8870;50.950;11.762;2022-12-18T02:59:19;12.27;;;8.50;;
17504;SDS011;8870;50.950;11.762;2022-12-18T03:04:45;15.70;;;9.13;;
17504;SDS011;8870;50.950;11.762;2022-12-18T03:10:21;11.97;;;8.17;;
17504;SDS011;8870;50.950;11.762;2022-12-18T03:15:48;14.30;;;8.65;;
17504;SDS011;8870;50.950;11.762;2022-12-18T03:21:23;11.73;;;8.40;;
17504;SDS011;8870;50.950;11.762;2022-12-18T03:26:51;13.80;;;8.57;;
17504;SDS011;8870;50.950;11.762;2022-12-18T03:32:28;12.80;;;9.10;;
17504;SDS011;8870;50.950;11.762;2022-12-18T03:37:51;12.07;;;9.20;;
17504;SDS011;8870;50.950;11.762;2022-12-18T03:43:29;14.33;;;9.63;;
17504;SDS011;8870;50.950;11.762;2022-12-18T03:48:59;13.87;;;9.17;;
17504;SDS011;8870;50.950;11.762;2022-12-18T03:54:38;15.27;;;9.30;;
17504;SDS011;8870;50.950;11.762;2022-12-18T04:00:00;14.93;;;8.97;;
17504;SDS011;8870;50.950;11.762;2022-12-18T04:05:46;13.47;;;9.90;;
17504;SDS011;8870;50.950;11.762;2022-12-18T04:11:08;14.27;;;9.30;;
17504;SDS011;8870;50.950;11.762;2022-12-18T04:16:40;14.17;;;9.60;;
17504;SDS011;8870;50.950;11.762;2022-12-18T04:22:08;14.35;;;9.73;;
17504;SDS011;8870;50.950;11.762;2022-12-18T04:27:40;15.50;;;9.80;;
17504;SDS011;8870;50.950;11.762;2022-12-18T04:32:58;13.87;;;9.30;;
17504;SDS011;8870;50.950;11.762;2022-12-18T04:38:33;15.60;;;9.83;;
17504;SDS011;8870;50.950;11.762;2022-12-18T04:43:52;13.60;;;9.97;;
17504;SDS011;8870;50.950;11.762;2022-12-18T04:49:23;13.97;;;9.07;;
17504;SDS011;8870;50.950;11.762;2022-12-18T04:54:44;13.67;;;9.57;;
17504;SDS011;8870;50.950;11.762;2022-12-18T05:00:15;15.90;;;9.67;;
17504;SDS011;8870;50.950;11.762;2022-12-18T05:05:34;13.57;;;8.43;;
17504;SDS011;8870;50.950;11.762;2022-12-18T05:11:10;13.60;;;9.03;;
17504;SDS011;8870;50.950;11.762;2022-12-18T05:16:30;13.93;;;9.40;;
17504;SDS011;8870;50.950;11.762;2022-12-18T05:22:01;14.93;;;9.33;;
17504;SDS011;8870;50.950;11.762;2022-12-18T05:27:22;15.47;;;8.90;;
17504;SDS011;8870;50.950;11.762;2022-12-18T05:32:53;15.63;;;9.13;;
17504;SDS011;8870;50.950;11.762;2022-12-18T05:38:11;13.90;;;8.77;;
17504;SDS011;8870;50.950;11.762;2022-12-18T05:43:45;10.80;;;8.57;;
17504;SDS011;8870;50.950;11.762;2022-12-18T05:49:03;11.57;;;8.43;;
17504;SDS011;8870;50.950;11.762;2022-12-18T05:54:34;12.83;;;8.90;;
17504;SDS011;8870;50.950;11.762;2022-12-18T05:59:56;12.33;;;8.60;;
17504;SDS011;8870;50.950;11.762;2022-12-18T06:05:28;15.53;;;9.13;;
17504;SDS011;8870;50.950;11.762;2022-12-18T06:10:49;12.07;;;8.53;;
17504;SDS011;8870;50.950;11.762;2022-12-18T06:16:24;13.20;;;9.03;;
17504;SDS011;8870;50.950;11.762;2022-12-18T06:21:43;13.07;;;9.07;;
17504;SDS011;8870;50.950;11.762;2022-12-18T06:27:14;15.50;;;9.43;;
17504;SDS011;8870;50.950;11.762;2022-12-18T06:32:35;14.20;;;8.63;;
17504;SDS011;8870;50.950;11.762;2022-12-18T06:38:10;10.57;;;7.53;;
17504;SDS011;8870;50.950;11.762;2022-12-18T06:43:28;12.30;;;8.53;;
17504;SDS011;8870;50.950;11.762;2022-12-18T06:49:03;13.93;;;8.80;;
17504;SDS011;8870;50.950;11.762;2022-12-18T06:54:21;10.97;;;7.77;;
17504;SDS011;8870;50.950;11.762;2022-12-18T06:59:52;14.77;;;8.37;;
17504;SDS011;8870;50.950;11.762;2022-12-18T07:05:13;11.10;;;7.47;;
17504;SDS011;8870;50.950;11.762;2022-12-18T07:10:44;12.37;;;8.20;;
17504;SDS011;8870;50.950;11.762;2022-12-18T07:16:05;13.47;;;7.67;;
17504;SDS011;8870;50.950;11.762;2022-12-18T07:21:42;10.53;;;7.63;;
17504;SDS011;8870;50.950;11.762;2022-12-18T07:27:00;12.23;;;7.90;;
17504;SDS011;8870;50.950;11.762;2022-12-18T07:32:31;10.07;;;7.10;;
17504;SDS011;8870;50.950;11.762;2022-12-18T07:37:52;12.40;;;7.57;;
17504;SDS011;8870;50.950;11.762;2022-12-18T07:43:23;11.43;;;7.43;;
17504;SDS011;8870;50.950;11.762;2022-12-18T07:48:42;10.80;;;7.93;;
17504;SDS011;8870;50.950;11.762;2022-12-18T07:54:16;10.77;;;7.67;;
17504;SDS011;8870;50.950;11.762;2022-12-18T07:59:35;11.87;;;7.83;;
17504;SDS011;8870;50.950;11.762;2022-12-18T08:05:07;13.30;;;7.67;;
17504;SDS011;8870;50.950;11.762;2022-12-18T08:10:28;11.20;;;8.20;;
17504;SDS011;8870;50.950;11.762;2022-12-18T08:16:01;10.60;;;7.47;;
17504;SDS011;8870;50.950;11.762;2022-12-18T08:21:22;10.63;;;7.20;;
17504;SDS011;8870;50.950;11.762;2022-12-18T08:26:57;10.60;;;6.63;;
17504;SDS011;8870;50.950;11.762;2022-12-18T08:32:36;10.73;;;6.57;;
17504;SDS011;8870;50.950;11.762;2022-12-18T08:38:07;10.73;;;6.80;;
17504;SDS011;8870;50.950;11.762;2022-12-18T08:43:28;9.07;;;6.60;;
17504;SDS011;8870;50.950;11.762;2022-12-18T08:49:15;9.17;;;5.83;;
17504;SDS011;8870;50.950;11.762;2022-12-18T08:54:48;9.30;;;6.37;;
17504;SDS011;8870;50.950;11.762;2022-12-18T09:00:11;8.57;;;6.20;;
17504;SDS011;8870;50.950;11.762;2022-12-18T09:05:43;10.10;;;6.27;;
17504;SDS011;8870;50.950;11.762;2022-12-18T09:11:04;9.77;;;6.30;;
17504;SDS011;8870;50.950;11.762;2022-12-18T09:16:44;9.63;;;6.07;;
17504;SDS011;8870;50.950;11.762;2022-12-18T09:22:02;9.27;;;5.97;;
17504;SDS011;8870;50.950;11.762;2022-12-18T09:27:33;7.17;;;5.00;;
17504;SDS011;8870;50.950;11.762;2022-12-18T09:32:54;8.97;;;5.73;;
17504;SDS011;8870;50.950;11.762;2022-12-18T09:38:25;7.83;;;5.47;;
17504;SDS011;8870;50.950;11.762;2022-12-18T09:43:45;9.80;;;6.40;;
17504;SDS011;8870;50.950;11.762;2022-12-18T09:49:23;8.80;;;6.25;;
17504;SDS011;8870;50.950;11.762;2022-12-18T09:54:44;9.00;;;5.20;;
17504;SDS011;8870;50.950;11.762;2022-12-18T10:00:20;7.47;;;5.45;;
17504;SDS011;8870;50.950;11.762;2022-12-18T10:05:44;7.68;;;5.72;;
17504;SDS011;8870;50.950;11.762;2022-12-18T10:11:34;7.32;;;5.50;;
17504;SDS011;8870;50.950;11.762;2022-12-18T10:17:02;7.57;;;5.20;;
17504;SDS011;8870;50.950;11.762;2022-12-18T10:22:47;6.65;;;5.28;;
17504;SDS011;8870;50.950;11.762;2022-12-18T10:28:15;7.32;;;4.93;;
17504;SDS011;8870;50.950;11.762;2022-12-18T10:33:48;7.35;;;5.45;;
17504;SDS011;8870;50.950;11.762;2022-12-18T10:39:19;6.93;;;5.00;;
17504;SDS011;8870;50.950;11.762;2022-12-18T10:44:54;5.13;;;4.20;;
17504;SDS011;8870;50.950;11.762;2022-12-18T10:50:26;5.82;;;4.20;;
17504;SDS011;8870;50.950;11.762;2022-12-18T10:56:24;5.63;;;4.65;;
17504;SDS011;8870;50.950;11.762;2022-12-18T11:01:46;6.10;;;4.20;;
17504;SDS011;8870;50.950;11.762;2022-12-18T11:07:18;5.00;;;3.85;;
17504;SDS011;8870;50.950;11.762;2022-12-18T11:12:39;5.32;;;3.70;;
17504;SDS011;8870;50.950;11.762;2022-12-18T11:18:16;5.50;;;3.97;;
17504;SDS011;8870;50.950;11.762;2022-12-18T11:23:37;5.60;;;4.10;;
17504;SDS011;8870;50.950;11.762;2022-12-18T11:29:22;6.63;;;4.70;;
17504;SDS011;8870;50.950;11.762;2022-12-18T11:34:52;6.03;;;4.50;;
17504;SDS011;8870;50.950;11.762;2022-12-18T11:40:33;6.95;;;4.28;;
17504;SDS011;8870;50.950;11.762;2022-12-18T11:45:59;6.82;;;4.43;;
17504;SDS011;8870;50.950;11.762;2022-12-18T11:51:38;6.25;;;4.38;;
17504;SDS011;8870;50.950;11.762;2022-12-18T11:57:17;6.60;;;4.53;;
17504;SDS011;8870;50.950;11.762;2022-12-18T12:08:55;4.63;;;3.97;;
17504;SDS011;8870;50.950;11.762;2022-12-18T12:14:26;6.35;;;4.50;;
17504;SDS011;8870;50.950;11.762;2022-12-18T12:20:14;6.88;;;5.00;;
17504;SDS011;8870;50.950;11.762;2022-12-18T12:25:44;7.03;;;5.10;;
17504;SDS011;8870;50.950;11.762;2022-12-18T12:31:24;5.25;;;4.38;;
17504;SDS011;8870;50.950;11.762;2022-12-18T12:37:15;5.40;;;4.22;;
17504;SDS011;8870;50.950;11.762;2022-12-18T12:42:41;4.55;;;3.67;;
17504;SDS011;8870;50.950;11.762;2022-12-18T12:48:38;4.78;;;4.10;;
17504;SDS011;8870;50.950;11.762;2022-12-18T12:54:05;6.40;;;4.45;;
17504;SDS011;8870;50.950;11.762;2022-12-18T12:59:47;5.88;;;4.20;;
17504;SDS011;8870;50.950;11.762;2022-12-18T13:05:16;6.25;;;4.53;;
17504;SDS011;8870;50.950;11.762;2022-12-18T13:10:56;5.60;;;4.40;;
17504;SDS011;8870;50.950;11.762;2022-12-18T13:16:29;5.32;;;4.18;;
17504;SDS011;8870;50.950;11.762;2022-12-18T13:21:59;5.72;;;3.60;;
17504;SDS011;8870;50.950;11.762;2022-12-18T13:39:32;2.92;;;2.65;;
17504;SDS011;8870;50.950;11.762;2022-12-18T13:45:18;3.25;;;2.80;;
17504;SDS011;8870;50.950;11.762;2022-12-18T13:50:56;3.28;;;2.78;;
17504;SDS011;8870;50.950;11.762;2022-12-18T13:56:30;3.17;;;2.65;;
17504;SDS011;8870;50.950;11.762;2022-12-18T14:01:54;4.93;;;3.03;;
17504;SDS011;8870;50.950;11.762;2022-12-18T14:07:28;4.93;;;3.55;;
17504;SDS011;8870;50.950;11.762;2022-12-18T14:12:57;4.22;;;3.60;;
17504;SDS011;8870;50.950;11.762;2022-12-18T14:18:41;4.07;;;3.42;;
17504;SDS011;8870;50.950;11.762;2022-12-18T14:24:18;5.38;;;4.10;;
17504;SDS011;8870;50.950;11.762;2022-12-18T14:29:51;3.95;;;3.10;;
17504;SDS011;8870;50.950;11.762;2022-12-18T14:35:14;4.18;;;3.20;;
17504;SDS011;8870;50.950;11.762;2022-12-18T14:40:45;7.28;;;6.57;;
17504;SDS011;8870;50.950;11.762;2022-12-18T14:46:04;4.65;;;3.55;;
17504;SDS011;8870;50.950;11.762;2022-12-18T14:51:39;4.35;;;3.33;;
17504;SDS011;8870;50.950;11.762;2022-12-18T14:57:20;4.85;;;3.10;;
17504;SDS011;8870;50.950;11.762;2022-12-18T15:02:41;5.13;;;2.80;;
17504;SDS011;8870;50.950;11.762;2022-12-18T15:08:27;4.35;;;3.30;;
17504;SDS011;8870;50.950;11.762;2022-12-18T15:13:47;3.95;;;3.50;;
17504;SDS011;8870;50.950;11.762;2022-12-18T15:19:18;5.28;;;3.42;;
17504;SDS011;8870;50.950;11.762;2022-12-18T15:24:41;5.25;;;3.80;;
17504;SDS011;8870;50.950;11.762;2022-12-18T15:30:16;4.75;;;3.60;;
17504;SDS011;8870;50.950;11.762;2022-12-18T15:35:36;5.47;;;4.07;;
17504;SDS011;8870;50.950;11.762;2022-12-18T15:41:13;6.15;;;3.65;;
17504;SDS011;8870;50.950;11.762;2022-12-18T15:46:33;5.20;;;3.70;;
17504;SDS011;8870;50.950;11.762;2022-12-18T15:52:03;4.88;;;3.63;;
17504;SDS011;8870;50.950;11.762;2022-12-18T15:57:25;5.50;;;3.60;;
17504;SDS011;8870;50.950;11.762;2022-12-18T16:02:56;4.05;;;3.28;;
17504;SDS011;8870;50.950;11.762;2022-12-18T16:08:15;4.55;;;3.60;;
17504;SDS011;8870;50.950;11.762;2022-12-18T16:13:48;6.05;;;4.32;;
17504;SDS011;8870;50.950;11.762;2022-12-18T16:19:07;6.78;;;5.68;;
17504;SDS011;8870;50.950;11.762;2022-12-18T16:24:37;7.25;;;4.30;;
17504;SDS011;8870;50.950;11.762;2022-12-18T16:30:00;6.18;;;4.20;;
17504;SDS011;8870;50.950;11.762;2022-12-18T16:35:31;5.78;;;4.30;;
17504;SDS011;8870;50.950;11.762;2022-12-18T16:40:52;6.00;;;4.20;;
17504;SDS011;8870;50.950;11.762;2022-12-18T16:46:38;6.35;;;5.38;;
17504;SDS011;8870;50.950;11.762;2022-12-18T16:52:01;5.45;;;4.13;;
17504;SDS011;8870;50.950;11.762;2022-12-18T16:57:32;5.05;;;3.92;;
17504;SDS011;8870;50.950;11.762;2022-12-18T17:02:53;4.40;;;3.85;;
17504;SDS011;8870;50.950;11.762;2022-12-18T17:08:25;5.50;;;4.00;;
17504;SDS011;8870;50.950;11.762;2022-12-18T17:13:44;5.53;;;4.30;;
17504;SDS011;8870;50.950;11.762;2022-12-18T17:19:18;4.70;;;3.85;;
17504;SDS011;8870;50.950;11.762;2022-12-18T17:24:37;5.35;;;4.00;;
17504;SDS011;8870;50.950;11.762;2022-12-18T17:30:09;5.57;;;4.50;;
17504;SDS011;8870;50.950;11.762;2022-12-18T17:35:30;6.57;;;4.28;;
17504;SDS011;8870;50.950;11.762;2022-12-18T17:41:02;5.80;;;4.22;;
17504;SDS011;8870;50.950;11.762;2022-12-18T17:46:22;6.10;;;4.50;;
17504;SDS011;8870;50.950;11.762;2022-12-18T17:51:56;5.90;;;4.18;;
17504;SDS011;8870;50.950;11.762;2022-12-18T17:57:15;5.53;;;4.47;;
17504;SDS011;8870;50.950;11.762;2022-12-18T18:02:46;5.60;;;4.18;;
17504;SDS011;8870;50.950;11.762;2022-12-18T18:08:06;5.53;;;4.60;;
17504;SDS011;8870;50.950;11.762;2022-12-18T18:13:37;5.80;;;4.43;;
17504;SDS011;8870;50.950;11.762;2022-12-18T18:19:08;4.95;;;4.20;;
17504;SDS011;8870;50.950;11.762;2022-12-18T18:24:43;5.78;;;3.95;;
17504;SDS011;8870;50.950;11.762;2022-12-18T18:30:02;4.63;;;4.13;;
17504;SDS011;8870;50.950;11.762;2022-12-18T18:35:34;5.68;;;4.35;;
17504;SDS011;8870;50.950;11.762;2022-12-18T18:41:04;5.15;;;4.07;;
17504;SDS011;8870;50.950;11.762;2022-12-18T18:46:35;5.30;;;4.60;;
17504;SDS011;8870;50.950;11.762;2022-12-18T18:52:01;4.97;;;4.13;;
17504;SDS011;8870;50.950;11.762;2022-12-18T18:57:35;7.22;;;4.50;;
17504;SDS011;8870;50.950;11.762;2022-12-18T19:02:54;5.78;;;4.60;;
17504;SDS011;8870;50.950;11.762;2022-12-18T19:08:25;6.38;;;4.90;;
17504;SDS011;8870;50.950;11.762;2022-12-18T19:13:48;5.50;;;4.60;;
17504;SDS011;8870;50.950;11.762;2022-12-18T19:19:23;5.53;;;4.15;;
17504;SDS011;8870;50.950;11.762;2022-12-18T19:24:41;4.88;;;4.00;;
17504;SDS011;8870;50.950;11.762;2022-12-18T19:30:14;5.30;;;3.97;;
17504;SDS011;8870;50.950;11.762;2022-12-18T19:35:33;4.43;;;3.67;;
17504;SDS011;8870;50.950;11.762;2022-12-18T19:41:04;5.78;;;3.88;;
17504;SDS011;8870;50.950;11.762;2022-12-18T19:46:25;4.72;;;3.83;;
17504;SDS011;8870;50.950;11.762;2022-12-18T19:51:58;5.68;;;4.20;;
17504;SDS011;8870;50.950;11.762;2022-12-18T19:57:16;4.25;;;3.78;;
17504;SDS011;8870;50.950;11.762;2022-12-18T20:02:49;4.47;;;3.50;;
17504;SDS011;8870;50.950;11.762;2022-12-18T20:08:23;3.92;;;3.15;;
17504;SDS011;8870;50.950;11.762;2022-12-18T20:13:54;4.03;;;3.40;;
17504;SDS011;8870;50.950;11.762;2022-12-18T20:19:22;4.57;;;3.80;;
17504;SDS011;8870;50.950;11.762;2022-12-18T20:24:54;4.28;;;3.75;;
17504;SDS011;8870;50.950;11.762;2022-12-18T20:30:12;4.35;;;3.78;;
17504;SDS011;8870;50.950;11.762;2022-12-18T20:35:46;7.05;;;4.43;;
17504;SDS011;8870;50.950;11.762;2022-12-18T20:41:06;4.90;;;3.85;;
17504;SDS011;8870;50.950;11.762;2022-12-18T20:46:39;6.03;;;4.35;;
17504;SDS011;8870;50.950;11.762;2022-12-18T20:51:59;4.70;;;3.90;;
17504;SDS011;8870;50.950;11.762;2022-12-18T20:57:32;4.63;;;4.07;;
17504;SDS011;8870;50.950;11.762;2022-12-18T21:02:50;4.82;;;4.15;;
17504;SDS011;8870;50.950;11.762;2022-12-18T21:08:23;5.03;;;4.13;;
17504;SDS011;8870;50.950;11.762;2022-12-18T21:13:42;3.97;;;3.58;;
17504;SDS011;8870;50.950;11.762;2022-12-18T21:19:13;6.55;;;4.35;;
17504;SDS011;8870;50.950;11.762;2022-12-18T21:24:35;4.68;;;4.00;;
17504;SDS011;8870;50.950;11.762;2022-12-18T21:30:07;4.50;;;4.10;;
17504;SDS011;8870;50.950;11.762;2022-12-18T21:35:26;5.13;;;4.03;;
17504;SDS011;8870;50.950;11.762;2022-12-18T21:40:59;6.10;;;4.70;;
17504;SDS011;8870;50.950;11.762;2022-12-18T21:46:22;5.28;;;4.47;;
17504;SDS011;8870;50.950;11.762;2022-12-18T21:51:54;4.80;;;4.18;;
17504;SDS011;8870;50.950;11.762;2022-12-18T21:57:16;6.45;;;4.30;;
17504;SDS011;8870;50.950;11.762;2022-12-18T22:02:48;5.30;;;4.50;;
17504;SDS011;8870;50.950;11.762;2022-12-18T22:08:26;5.70;;;4.63;;
17504;SDS011;8870;50.950;11.762;2022-12-18T22:14:00;5.05;;;4.47;;
17504;SDS011;8870;50.950;11.762;2022-12-18T22:19:19;5.25;;;4.75;;
17504;SDS011;8870;50.950;11.762;2022-12-18T22:24:57;5.57;;;4.65;;
17504;SDS011;8870;50.950;11.762;2022-12-18T22:30:17;5.68;;;4.60;;
17504;SDS011;8870;50.950;11.762;2022-12-18T22:35:49;6.47;;;4.63;;
17504;SDS011;8870;50.950;11.762;2022-12-18T22:41:07;5.68;;;4.43;;
17504;SDS011;8870;50.950;11.762;2022-12-18T22:46:41;5.40;;;4.38;;
17504;SDS011;8870;50.950;11.762;2022-12-18T22:52:20;5.35;;;4.50;;
17504;SDS011;8870;50.950;11.762;2022-12-18T22:57:52;5.75;;;4.65;;
17504;SDS011;8870;50.950;11.762;2022-12-18T23:03:12;5.60;;;4.10;;
17504;SDS011;8870;50.950;11.762;2022-12-18T23:08:44;5.10;;;4.43;;
17504;SDS011;8870;50.950;11.762;2022-12-18T23:14:03;6.00;;;4.57;;
17504;SDS011;8870;50.950;11.762;2022-12-18T23:19:39;4.70;;;4.20;;
17504;SDS011;8870;50.950;11.762;2022-12-18T23:24:58;6.53;;;5.13;;
17504;SDS011;8870;50.950;11.762;2022-12-18T23:30:29;7.55;;;4.80;;
17504;SDS011;8870;50.950;11.762;2022-12-18T23:35:50;6.65;;;4.93;;
17504;SDS011;8870;50.950;11.762;2022-12-18T23:41:23;6.07;;;5.03;;
17504;SDS011;8870;50.950;11.762;2022-12-18T23:46:44;6.47;;;5.03;;
17504;SDS011;8870;50.950;11.762;2022-12-18T23:52:17;6.22;;;5.28;;
17504;SDS011;8870;50.950;11.762;2022-12-18T23:57:52;6.47;;;4.80;;
